sensor_id;sensor_type;location;lat;lon;timestamp;P1;durP1;ratioP1;P2;durP2;ratioP2
23668;SDS011;12011;47.422;15.018;2024-02-04T00:01:59;2.49;;;2.46;;
23668;SDS011;12011;47.422;15.018;2024-02-04T00:04:32;2.55;;;2.51;;
23668;SDS011;12011;47.422;15.018;2024-02-04T00:07:04;3.25;;;3.19;;
23668;SDS011;12011;47.422;15.018;2024-02-04T00:09:39;2.30;;;2.26;;
23668;SDS011;12011;47.422;15.018;2024-02-04T00:12:11;5.03;;;4.93;;
23668;SDS011;12011;47.422;15.018;2024-02-04T00:14:43;4.73;;;4.56;;
23668;SDS011;12011;47.422;15.018;2024-02-04T00:17:21;3.65;;;3.53;;
23668;SDS011;12011;47.422;15.018;2024-02-04T00:19:59;2.42;;;2.35;;
23668;SDS011;12011;47.422;15.018;2024-02-04T00:22:33;2.22;;;2.18;;
23668;SDS011;12011;47.422;15.018;2024-02-04T00:25:07;3.59;;;3.50;;
23668;SDS011;12011;47.422;15.018;2024-02-04T00:27:47;4.47;;;4.32;;
23668;SDS011;12011;47.422;15.018;2024-02-04T00:30:17;4.74;;;4.63;;
23668;SDS011;12011;47.422;15.018;2024-02-04T00:32:51;2.93;;;2.86;;
23668;SDS011;12011;47.422;15.018;2024-02-04T00:35:31;3.13;;;3.08;;
23668;SDS011;12011;47.422;15.018;2024-02-04T00:38:02;2.89;;;2.83;;
23668;SDS011;12011;47.422;15.018;2024-02-04T00:40:44;3.04;;;2.99;;
23668;SDS011;12011;47.422;15.018;2024-02-04T00:43:20;2.84;;;2.77;;
23668;SDS011;12011;47.422;15.018;2024-02-04T00:45:58;2.52;;;2.46;;
23668;SDS011;12011;47.422;15.018;2024-02-04T00:48:42;2.61;;;2.56;;
23668;SDS011;12011;47.422;15.018;2024-02-04T00:51:23;2.40;;;2.37;;
23668;SDS011;12011;47.422;15.018;2024-02-04T00:53:59;1.80;;;1.78;;
23668;SDS011;12011;47.422;15.018;2024-02-04T00:56:33;1.57;;;1.55;;
23668;SDS011;12011;47.422;15.018;2024-02-04T00:59:11;1.57;;;1.55;;
23668;SDS011;12011;47.422;15.018;2024-02-04T01:01:47;1.42;;;1.40;;
23668;SDS011;12011;47.422;15.018;2024-02-04T01:04:32;1.30;;;1.27;;
23668;SDS011;12011;47.422;15.018;2024-02-04T01:07:04;1.07;;;1.05;;
23668;SDS011;12011;47.422;15.018;2024-02-04T01:09:45;1.00;;;0.98;;
23668;SDS011;12011;47.422;15.018;2024-02-04T01:12:30;2.45;;;2.40;;
23668;SDS011;12011;47.422;15.018;2024-02-04T01:15:02;1.41;;;1.38;;
23668;SDS011;12011;47.422;15.018;2024-02-04T01:17:35;1.08;;;1.05;;
23668;SDS011;12011;47.422;15.018;2024-02-04T01:20:14;1.00;;;0.98;;
23668;SDS011;12011;47.422;15.018;2024-02-04T01:22:47;3.12;;;3.03;;
23668;SDS011;12011;47.422;15.018;2024-02-04T01:25:27;1.44;;;1.40;;
23668;SDS011;12011;47.422;15.018;2024-02-04T01:28:12;0.95;;;0.92;;
23668;SDS011;12011;47.422;15.018;2024-02-04T01:30:46;2.27;;;2.19;;
23668;SDS011;12011;47.422;15.018;2024-02-04T01:33:26;2.54;;;2.48;;
23668;SDS011;12011;47.422;15.018;2024-02-04T01:36:05;1.83;;;1.80;;
23668;SDS011;12011;47.422;15.018;2024-02-04T01:38:38;1.32;;;1.29;;
23668;SDS011;12011;47.422;15.018;2024-02-04T01:41:17;1.28;;;1.25;;
23668;SDS011;12011;47.422;15.018;2024-02-04T01:43:58;1.35;;;1.32;;
23668;SDS011;12011;47.422;15.018;2024-02-04T01:46:40;1.02;;;1.00;;
23668;SDS011;12011;47.422;15.018;2024-02-04T01:49:13;0.90;;;0.87;;
23668;SDS011;12011;47.422;15.018;2024-02-04T01:54:43;1.16;;;1.10;;
23668;SDS011;12011;47.422;15.018;2024-02-04T01:57:18;0.95;;;0.90;;
23668;SDS011;12011;47.422;15.018;2024-02-04T01:59:54;1.24;;;1.17;;
23668;SDS011;12011;47.422;15.018;2024-02-04T02:02:31;1.74;;;1.66;;
23668;SDS011;12011;47.422;15.018;2024-02-04T02:05:05;1.29;;;1.25;;
23668;SDS011;12011;47.422;15.018;2024-02-04T02:07:48;0.96;;;0.93;;
23668;SDS011;12011;47.422;15.018;2024-02-04T02:10:21;1.00;;;0.96;;
23668;SDS011;12011;47.422;15.018;2024-02-04T02:13:06;0.87;;;0.82;;
23668;SDS011;12011;47.422;15.018;2024-02-04T02:15:49;0.98;;;0.90;;
23668;SDS011;12011;47.422;15.018;2024-02-04T02:18:27;0.80;;;0.71;;
23668;SDS011;12011;47.422;15.018;2024-02-04T02:21:15;1.45;;;1.29;;
23668;SDS011;12011;47.422;15.018;2024-02-04T02:24:10;1.16;;;1.04;;
23668;SDS011;12011;47.422;15.018;2024-02-04T02:26:48;0.93;;;0.82;;
23668;SDS011;12011;47.422;15.018;2024-02-04T02:29:27;0.96;;;0.83;;
23668;SDS011;12011;47.422;15.018;2024-02-04T02:32:08;1.10;;;0.95;;
23668;SDS011;12011;47.422;15.018;2024-02-04T02:34:47;1.26;;;1.09;;
23668;SDS011;12011;47.422;15.018;2024-02-04T02:37:22;1.27;;;1.09;;
23668;SDS011;12011;47.422;15.018;2024-02-04T02:40:05;1.07;;;0.89;;
23668;SDS011;12011;47.422;15.018;2024-02-04T02:42:56;1.34;;;1.10;;
23668;SDS011;12011;47.422;15.018;2024-02-04T02:45:32;1.44;;;1.17;;
23668;SDS011;12011;47.422;15.018;2024-02-04T02:48:20;1.41;;;1.13;;
23668;SDS011;12011;47.422;15.018;2024-02-04T02:50:53;1.32;;;1.06;;
23668;SDS011;12011;47.422;15.018;2024-02-04T02:53:24;1.30;;;1.03;;
23668;SDS011;12011;47.422;15.018;2024-02-04T02:56:05;1.44;;;1.13;;
23668;SDS011;12011;47.422;15.018;2024-02-04T02:58:47;1.44;;;1.11;;
23668;SDS011;12011;47.422;15.018;2024-02-04T03:01:21;1.35;;;1.03;;
23668;SDS011;12011;47.422;15.018;2024-02-04T03:04:06;1.21;;;0.94;;
23668;SDS011;12011;47.422;15.018;2024-02-04T03:09:34;1.78;;;1.42;;
23668;SDS011;12011;47.422;15.018;2024-02-04T03:12:07;1.69;;;1.38;;
23668;SDS011;12011;47.422;15.018;2024-02-04T03:14:45;1.47;;;1.22;;
23668;SDS011;12011;47.422;15.018;2024-02-04T03:17:18;1.60;;;1.34;;
23668;SDS011;12011;47.422;15.018;2024-02-04T03:19:55;1.23;;;1.04;;
23668;SDS011;12011;47.422;15.018;2024-02-04T03:22:32;1.17;;;0.98;;
23668;SDS011;12011;47.422;15.018;2024-02-04T03:25:09;1.25;;;1.03;;
23668;SDS011;12011;47.422;15.018;2024-02-04T03:27:46;1.21;;;0.97;;
23668;SDS011;12011;47.422;15.018;2024-02-04T03:30:22;1.42;;;1.13;;
23668;SDS011;12011;47.422;15.018;2024-02-04T03:33:00;1.09;;;0.87;;
23668;SDS011;12011;47.422;15.018;2024-02-04T03:35:38;1.70;;;1.38;;
23668;SDS011;12011;47.422;15.018;2024-02-04T03:38:12;1.22;;;0.98;;
23668;SDS011;12011;47.422;15.018;2024-02-04T03:40:55;1.17;;;0.94;;
23668;SDS011;12011;47.422;15.018;2024-02-04T03:43:30;1.30;;;1.04;;
23668;SDS011;12011;47.422;15.018;2024-02-04T03:46:06;1.63;;;1.29;;
23668;SDS011;12011;47.422;15.018;2024-02-04T03:48:46;1.43;;;1.09;;
23668;SDS011;12011;47.422;15.018;2024-02-04T03:51:19;1.43;;;1.08;;
23668;SDS011;12011;47.422;15.018;2024-02-04T03:53:58;1.29;;;0.97;;
23668;SDS011;12011;47.422;15.018;2024-02-04T03:56:27;1.44;;;1.08;;
23668;SDS011;12011;47.422;15.018;2024-02-04T03:59:04;1.22;;;0.92;;
23668;SDS011;12011;47.422;15.018;2024-02-04T04:01:40;1.51;;;1.14;;
23668;SDS011;12011;47.422;15.018;2024-02-04T04:04:22;1.05;;;0.82;;
23668;SDS011;12011;47.422;15.018;2024-02-04T04:07:14;1.51;;;1.17;;
23668;SDS011;12011;47.422;15.018;2024-02-04T04:09:47;1.16;;;0.89;;
23668;SDS011;12011;47.422;15.018;2024-02-04T04:12:21;1.42;;;1.07;;
23668;SDS011;12011;47.422;15.018;2024-02-04T04:14:56;1.38;;;1.05;;
23668;SDS011;12011;47.422;15.018;2024-02-04T04:17:42;1.33;;;1.02;;
23668;SDS011;12011;47.422;15.018;2024-02-04T04:20:13;1.14;;;0.86;;
23668;SDS011;12011;47.422;15.018;2024-02-04T04:22:49;1.13;;;0.86;;
23668;SDS011;12011;47.422;15.018;2024-02-04T04:25:25;1.29;;;0.99;;
23668;SDS011;12011;47.422;15.018;2024-02-04T04:27:59;1.59;;;1.23;;
23668;SDS011;12011;47.422;15.018;2024-02-04T04:30:33;1.22;;;0.95;;
23668;SDS011;12011;47.422;15.018;2024-02-04T04:33:22;1.27;;;0.97;;
23668;SDS011;12011;47.422;15.018;2024-02-04T04:35:58;1.04;;;0.79;;
23668;SDS011;12011;47.422;15.018;2024-02-04T04:38:34;2.00;;;1.52;;
23668;SDS011;12011;47.422;15.018;2024-02-04T04:41:07;1.35;;;1.03;;
23668;SDS011;12011;47.422;15.018;2024-02-04T04:43:43;1.60;;;1.19;;
23668;SDS011;12011;47.422;15.018;2024-02-04T04:46:17;1.54;;;1.16;;
23668;SDS011;12011;47.422;15.018;2024-02-04T04:49:03;1.46;;;1.07;;
23668;SDS011;12011;47.422;15.018;2024-02-04T04:51:44;1.51;;;1.10;;
23668;SDS011;12011;47.422;15.018;2024-02-04T04:54:21;2.10;;;1.59;;
23668;SDS011;12011;47.422;15.018;2024-02-04T04:57:06;2.75;;;2.23;;
23668;SDS011;12011;47.422;15.018;2024-02-04T04:59:47;4.70;;;4.36;;
23668;SDS011;12011;47.422;15.018;2024-02-04T05:02:19;1.42;;;1.38;;
23668;SDS011;12011;47.422;15.018;2024-02-04T05:05:00;1.23;;;1.18;;
23668;SDS011;12011;47.422;15.018;2024-02-04T05:07:38;1.13;;;1.07;;
23668;SDS011;12011;47.422;15.018;2024-02-04T05:10:19;1.01;;;0.95;;
23668;SDS011;12011;47.422;15.018;2024-02-04T05:12:52;1.29;;;1.21;;
23668;SDS011;12011;47.422;15.018;2024-02-04T05:15:30;1.29;;;1.19;;
23668;SDS011;12011;47.422;15.018;2024-02-04T05:18:11;1.45;;;1.33;;
23668;SDS011;12011;47.422;15.018;2024-02-04T05:20:51;1.37;;;1.25;;
23668;SDS011;12011;47.422;15.018;2024-02-04T05:23:33;1.60;;;1.45;;
23668;SDS011;12011;47.422;15.018;2024-02-04T05:26:06;1.81;;;1.68;;
23668;SDS011;12011;47.422;15.018;2024-02-04T05:28:48;1.29;;;1.20;;
23668;SDS011;12011;47.422;15.018;2024-02-04T05:31:26;1.50;;;1.40;;
23668;SDS011;12011;47.422;15.018;2024-02-04T05:33:57;1.58;;;1.45;;
23668;SDS011;12011;47.422;15.018;2024-02-04T05:36:40;1.58;;;1.44;;
23668;SDS011;12011;47.422;15.018;2024-02-04T05:39:12;1.44;;;1.31;;
23668;SDS011;12011;47.422;15.018;2024-02-04T05:41:52;1.39;;;1.24;;
23668;SDS011;12011;47.422;15.018;2024-02-04T05:44:31;1.68;;;1.53;;
23668;SDS011;12011;47.422;15.018;2024-02-04T05:47:06;2.27;;;2.11;;
23668;SDS011;12011;47.422;15.018;2024-02-04T05:49:41;2.60;;;2.47;;
23668;SDS011;12011;47.422;15.018;2024-02-04T05:52:18;3.05;;;2.93;;
23668;SDS011;12011;47.422;15.018;2024-02-04T05:54:58;2.23;;;2.17;;
23668;SDS011;12011;47.422;15.018;2024-02-04T05:57:36;1.94;;;1.87;;
23668;SDS011;12011;47.422;15.018;2024-02-04T06:00:07;2.84;;;2.73;;
23668;SDS011;12011;47.422;15.018;2024-02-04T06:02:42;2.35;;;2.28;;
23668;SDS011;12011;47.422;15.018;2024-02-04T06:05:13;1.65;;;1.60;;
23668;SDS011;12011;47.422;15.018;2024-02-04T06:07:46;1.26;;;1.23;;
23668;SDS011;12011;47.422;15.018;2024-02-04T06:10:16;1.27;;;1.23;;
23668;SDS011;12011;47.422;15.018;2024-02-04T06:12:46;1.25;;;1.21;;
23668;SDS011;12011;47.422;15.018;2024-02-04T06:15:15;0.96;;;0.93;;
23668;SDS011;12011;47.422;15.018;2024-02-04T06:17:46;1.12;;;1.09;;
23668;SDS011;12011;47.422;15.018;2024-02-04T06:20:16;1.17;;;1.13;;
23668;SDS011;12011;47.422;15.018;2024-02-04T06:22:48;0.99;;;0.94;;
23668;SDS011;12011;47.422;15.018;2024-02-04T06:25:17;0.89;;;0.85;;
23668;SDS011;12011;47.422;15.018;2024-02-04T06:27:48;0.79;;;0.75;;
23668;SDS011;12011;47.422;15.018;2024-02-04T06:30:17;0.82;;;0.78;;
23668;SDS011;12011;47.422;15.018;2024-02-04T06:32:47;0.93;;;0.88;;
23668;SDS011;12011;47.422;15.018;2024-02-04T06:35:17;1.06;;;1.01;;
23668;SDS011;12011;47.422;15.018;2024-02-04T06:37:49;1.02;;;0.97;;
23668;SDS011;12011;47.422;15.018;2024-02-04T06:40:19;0.83;;;0.79;;
23668;SDS011;12011;47.422;15.018;2024-02-04T06:42:48;0.84;;;0.81;;
23668;SDS011;12011;47.422;15.018;2024-02-04T06:45:17;0.89;;;0.84;;
23668;SDS011;12011;47.422;15.018;2024-02-04T06:47:47;0.84;;;0.81;;
23668;SDS011;12011;47.422;15.018;2024-02-04T06:50:16;1.02;;;0.99;;
23668;SDS011;12011;47.422;15.018;2024-02-04T06:52:51;0.71;;;0.69;;
23668;SDS011;12011;47.422;15.018;2024-02-04T06:55:21;0.90;;;0.86;;
23668;SDS011;12011;47.422;15.018;2024-02-04T06:57:50;0.81;;;0.78;;
23668;SDS011;12011;47.422;15.018;2024-02-04T07:00:20;0.69;;;0.66;;
23668;SDS011;12011;47.422;15.018;2024-02-04T07:02:49;0.75;;;0.72;;
23668;SDS011;12011;47.422;15.018;2024-02-04T07:05:19;0.57;;;0.54;;
23668;SDS011;12011;47.422;15.018;2024-02-04T07:07:53;0.61;;;0.59;;
23668;SDS011;12011;47.422;15.018;2024-02-04T07:10:22;0.66;;;0.64;;
23668;SDS011;12011;47.422;15.018;2024-02-04T07:12:52;0.56;;;0.54;;
23668;SDS011;12011;47.422;15.018;2024-02-04T07:15:22;0.45;;;0.44;;
23668;SDS011;12011;47.422;15.018;2024-02-04T07:17:51;0.56;;;0.54;;
23668;SDS011;12011;47.422;15.018;2024-02-04T07:20:20;0.41;;;0.40;;
23668;SDS011;12011;47.422;15.018;2024-02-04T07:22:52;0.46;;;0.45;;
23668;SDS011;12011;47.422;15.018;2024-02-04T07:25:22;0.48;;;0.47;;
23668;SDS011;12011;47.422;15.018;2024-02-04T07:27:51;0.48;;;0.46;;
23668;SDS011;12011;47.422;15.018;2024-02-04T07:30:22;0.43;;;0.42;;
23668;SDS011;12011;47.422;15.018;2024-02-04T07:32:51;0.48;;;0.46;;
23668;SDS011;12011;47.422;15.018;2024-02-04T07:35:20;0.35;;;0.34;;
23668;SDS011;12011;47.422;15.018;2024-02-04T07:37:52;0.38;;;0.37;;
23668;SDS011;12011;47.422;15.018;2024-02-04T07:40:22;0.33;;;0.32;;
23668;SDS011;12011;47.422;15.018;2024-02-04T07:42:52;0.36;;;0.35;;
23668;SDS011;12011;47.422;15.018;2024-02-04T07:45:22;0.28;;;0.27;;
23668;SDS011;12011;47.422;15.018;2024-02-04T07:47:52;0.21;;;0.21;;
23668;SDS011;12011;47.422;15.018;2024-02-04T07:50:21;0.18;;;0.18;;
23668;SDS011;12011;47.422;15.018;2024-02-04T07:52:54;0.33;;;0.32;;
23668;SDS011;12011;47.422;15.018;2024-02-04T07:55:23;0.25;;;0.24;;
23668;SDS011;12011;47.422;15.018;2024-02-04T07:57:53;0.28;;;0.27;;
23668;SDS011;12011;47.422;15.018;2024-02-04T08:00:22;0.29;;;0.28;;
23668;SDS011;12011;47.422;15.018;2024-02-04T08:02:52;0.17;;;0.16;;
23668;SDS011;12011;47.422;15.018;2024-02-04T08:05:23;0.20;;;0.19;;
23668;SDS011;12011;47.422;15.018;2024-02-04T08:07:55;0.15;;;0.14;;
23668;SDS011;12011;47.422;15.018;2024-02-04T08:10:25;0.14;;;0.14;;
23668;SDS011;12011;47.422;15.018;2024-02-04T08:12:54;0.24;;;0.23;;
23668;SDS011;12011;47.422;15.018;2024-02-04T08:15:23;0.14;;;0.14;;
23668;SDS011;12011;47.422;15.018;2024-02-04T08:17:53;0.24;;;0.23;;
23668;SDS011;12011;47.422;15.018;2024-02-04T08:20:23;0.19;;;0.19;;
23668;SDS011;12011;47.422;15.018;2024-02-04T08:22:55;0.31;;;0.30;;
23668;SDS011;12011;47.422;15.018;2024-02-04T08:25:24;0.21;;;0.21;;
23668;SDS011;12011;47.422;15.018;2024-02-04T08:27:54;0.34;;;0.33;;
23668;SDS011;12011;47.422;15.018;2024-02-04T08:30:23;0.16;;;0.16;;
23668;SDS011;12011;47.422;15.018;2024-02-04T08:32:53;0.16;;;0.16;;
23668;SDS011;12011;47.422;15.018;2024-02-04T08:35:22;0.22;;;0.21;;
23668;SDS011;12011;47.422;15.018;2024-02-04T08:37:54;0.14;;;0.13;;
23668;SDS011;12011;47.422;15.018;2024-02-04T08:40:24;0.24;;;0.23;;
23668;SDS011;12011;47.422;15.018;2024-02-04T08:42:53;0.21;;;0.20;;
23668;SDS011;12011;47.422;15.018;2024-02-04T08:45:23;0.13;;;0.13;;
23668;SDS011;12011;47.422;15.018;2024-02-04T08:47:52;0.16;;;0.16;;
23668;SDS011;12011;47.422;15.018;2024-02-04T08:50:22;0.16;;;0.16;;
23668;SDS011;12011;47.422;15.018;2024-02-04T08:52:51;0.21;;;0.20;;
23668;SDS011;12011;47.422;15.018;2024-02-04T08:55:24;0.23;;;0.23;;
23668;SDS011;12011;47.422;15.018;2024-02-04T08:57:54;0.13;;;0.13;;
23668;SDS011;12011;47.422;15.018;2024-02-04T09:00:24;0.14;;;0.14;;
23668;SDS011;12011;47.422;15.018;2024-02-04T09:02:54;0.22;;;0.21;;
23668;SDS011;12011;47.422;15.018;2024-02-04T09:05:26;0.14;;;0.13;;
23668;SDS011;12011;47.422;15.018;2024-02-04T09:08:16;0.11;;;0.11;;
23668;SDS011;12011;47.422;15.018;2024-02-04T09:10:46;0.11;;;0.11;;
23668;SDS011;12011;47.422;15.018;2024-02-04T09:13:15;0.10;;;0.10;;
23668;SDS011;12011;47.422;15.018;2024-02-04T09:15:45;0.13;;;0.13;;
23668;SDS011;12011;47.422;15.018;2024-02-04T09:18:15;0.09;;;0.09;;
23668;SDS011;12011;47.422;15.018;2024-02-04T09:20:45;0.10;;;0.10;;
23668;SDS011;12011;47.422;15.018;2024-02-04T09:23:17;0.14;;;0.14;;
23668;SDS011;12011;47.422;15.018;2024-02-04T09:25:47;0.29;;;0.28;;
23668;SDS011;12011;47.422;15.018;2024-02-04T09:28:16;0.14;;;0.13;;
23668;SDS011;12011;47.422;15.018;2024-02-04T09:30:46;0.20;;;0.19;;
23668;SDS011;12011;47.422;15.018;2024-02-04T09:33:15;0.14;;;0.13;;
23668;SDS011;12011;47.422;15.018;2024-02-04T09:35:45;0.16;;;0.16;;
23668;SDS011;12011;47.422;15.018;2024-02-04T09:38:14;0.09;;;0.09;;
23668;SDS011;12011;47.422;15.018;2024-02-04T09:40:50;0.09;;;0.09;;
23668;SDS011;12011;47.422;15.018;2024-02-04T09:43:19;0.13;;;0.13;;
23668;SDS011;12011;47.422;15.018;2024-02-04T09:45:49;0.09;;;0.09;;
23668;SDS011;12011;47.422;15.018;2024-02-04T09:48:20;0.08;;;0.08;;
23668;SDS011;12011;47.422;15.018;2024-02-04T09:50:52;0.12;;;0.12;;
23668;SDS011;12011;47.422;15.018;2024-02-04T09:53:26;0.13;;;0.13;;
23668;SDS011;12011;47.422;15.018;2024-02-04T09:56:03;0.12;;;0.12;;
23668;SDS011;12011;47.422;15.018;2024-02-04T09:58:34;0.12;;;0.12;;
23668;SDS011;12011;47.422;15.018;2024-02-04T10:01:04;0.15;;;0.15;;
23668;SDS011;12011;47.422;15.018;2024-02-04T10:03:35;0.11;;;0.11;;
23668;SDS011;12011;47.422;15.018;2024-02-04T10:06:05;0.18;;;0.18;;
23668;SDS011;12011;47.422;15.018;2024-02-04T10:08:38;0.09;;;0.09;;
23668;SDS011;12011;47.422;15.018;2024-02-04T10:11:07;0.11;;;0.11;;
23668;SDS011;12011;47.422;15.018;2024-02-04T10:13:44;0.05;;;0.05;;
23668;SDS011;12011;47.422;15.018;2024-02-04T10:16:14;0.10;;;0.10;;
23668;SDS011;12011;47.422;15.018;2024-02-04T10:18:46;0.08;;;0.08;;
23668;SDS011;12011;47.422;15.018;2024-02-04T10:21:19;0.09;;;0.08;;
23668;SDS011;12011;47.422;15.018;2024-02-04T10:23:53;0.04;;;0.04;;
23668;SDS011;12011;47.422;15.018;2024-02-04T10:26:23;0.05;;;0.05;;
23668;SDS011;12011;47.422;15.018;2024-02-04T10:28:59;0.12;;;0.11;;
23668;SDS011;12011;47.422;15.018;2024-02-04T10:31:30;0.07;;;0.07;;
23668;SDS011;12011;47.422;15.018;2024-02-04T10:34:00;0.08;;;0.08;;
23668;SDS011;12011;47.422;15.018;2024-02-04T10:36:30;0.13;;;0.13;;
23668;SDS011;12011;47.422;15.018;2024-02-04T10:39:03;0.31;;;0.31;;
23668;SDS011;12011;47.422;15.018;2024-02-04T10:41:33;0.12;;;0.12;;
23668;SDS011;12011;47.422;15.018;2024-02-04T10:44:06;0.23;;;0.22;;
23668;SDS011;12011;47.422;15.018;2024-02-04T10:46:37;0.18;;;0.18;;
23668;SDS011;12011;47.422;15.018;2024-02-04T10:49:09;0.21;;;0.20;;
23668;SDS011;12011;47.422;15.018;2024-02-04T10:51:43;0.12;;;0.12;;
23668;SDS011;12011;47.422;15.018;2024-02-04T10:54:17;0.33;;;0.32;;
23668;SDS011;12011;47.422;15.018;2024-02-04T10:56:54;0.12;;;0.12;;
23668;SDS011;12011;47.422;15.018;2024-02-04T10:59:28;0.33;;;0.32;;
23668;SDS011;12011;47.422;15.018;2024-02-04T11:01:59;0.27;;;0.27;;
23668;SDS011;12011;47.422;15.018;2024-02-04T11:04:29;0.15;;;0.15;;
23668;SDS011;12011;47.422;15.018;2024-02-04T11:07:00;0.14;;;0.14;;
23668;SDS011;12011;47.422;15.018;2024-02-04T11:09:34;0.17;;;0.17;;
23668;SDS011;12011;47.422;15.018;2024-02-04T11:12:06;0.30;;;0.29;;
23668;SDS011;12011;47.422;15.018;2024-02-04T11:14:41;0.32;;;0.31;;
23668;SDS011;12011;47.422;15.018;2024-02-04T11:17:20;0.39;;;0.38;;
23668;SDS011;12011;47.422;15.018;2024-02-04T11:20:25;0.29;;;0.28;;
23668;SDS011;12011;47.422;15.018;2024-02-04T11:23:19;0.38;;;0.37;;
23668;SDS011;12011;47.422;15.018;2024-02-04T11:26:08;0.34;;;0.33;;
23668;SDS011;12011;47.422;15.018;2024-02-04T11:28:40;0.36;;;0.35;;
23668;SDS011;12011;47.422;15.018;2024-02-04T11:31:13;0.32;;;0.31;;
23668;SDS011;12011;47.422;15.018;2024-02-04T11:33:44;0.26;;;0.26;;
23668;SDS011;12011;47.422;15.018;2024-02-04T11:36:14;0.32;;;0.31;;
23668;SDS011;12011;47.422;15.018;2024-02-04T11:38:47;0.21;;;0.21;;
23668;SDS011;12011;47.422;15.018;2024-02-04T11:41:24;0.47;;;0.46;;
23668;SDS011;12011;47.422;15.018;2024-02-04T11:43:55;0.41;;;0.40;;
23668;SDS011;12011;47.422;15.018;2024-02-04T11:46:30;0.24;;;0.23;;
23668;SDS011;12011;47.422;15.018;2024-02-04T11:49:00;0.22;;;0.21;;
23668;SDS011;12011;47.422;15.018;2024-02-04T11:51:30;0.23;;;0.22;;
23668;SDS011;12011;47.422;15.018;2024-02-04T11:54:00;0.61;;;0.60;;
23668;SDS011;12011;47.422;15.018;2024-02-04T11:56:33;0.49;;;0.48;;
23668;SDS011;12011;47.422;15.018;2024-02-04T11:59:04;0.34;;;0.33;;
23668;SDS011;12011;47.422;15.018;2024-02-04T12:01:35;0.28;;;0.27;;
23668;SDS011;12011;47.422;15.018;2024-02-04T12:04:11;0.34;;;0.33;;
23668;SDS011;12011;47.422;15.018;2024-02-04T12:06:42;0.24;;;0.23;;
23668;SDS011;12011;47.422;15.018;2024-02-04T12:09:12;0.24;;;0.23;;
23668;SDS011;12011;47.422;15.018;2024-02-04T12:11:47;0.18;;;0.17;;
23668;SDS011;12011;47.422;15.018;2024-02-04T12:14:17;0.29;;;0.28;;
23668;SDS011;12011;47.422;15.018;2024-02-04T12:16:48;0.38;;;0.36;;
23668;SDS011;12011;47.422;15.018;2024-02-04T12:19:17;0.26;;;0.24;;
23668;SDS011;12011;47.422;15.018;2024-02-04T12:21:47;0.24;;;0.23;;
23668;SDS011;12011;47.422;15.018;2024-02-04T12:24:16;0.20;;;0.19;;
23668;SDS011;12011;47.422;15.018;2024-02-04T12:26:49;0.48;;;0.45;;
23668;SDS011;12011;47.422;15.018;2024-02-04T12:29:19;0.42;;;0.39;;
23668;SDS011;12011;47.422;15.018;2024-02-04T12:31:57;0.42;;;0.39;;
23668;SDS011;12011;47.422;15.018;2024-02-04T12:34:28;0.46;;;0.42;;
23668;SDS011;12011;47.422;15.018;2024-02-04T12:36:59;0.47;;;0.43;;
23668;SDS011;12011;47.422;15.018;2024-02-04T12:39:29;0.34;;;0.31;;
23668;SDS011;12011;47.422;15.018;2024-02-04T12:42:02;0.54;;;0.48;;
23668;SDS011;12011;47.422;15.018;2024-02-04T12:44:33;0.46;;;0.42;;
23668;SDS011;12011;47.422;15.018;2024-02-04T12:47:03;0.46;;;0.41;;
23668;SDS011;12011;47.422;15.018;2024-02-04T12:49:33;0.47;;;0.42;;
23668;SDS011;12011;47.422;15.018;2024-02-04T12:52:06;0.66;;;0.59;;
23668;SDS011;12011;47.422;15.018;2024-02-04T12:54:40;0.64;;;0.56;;
23668;SDS011;12011;47.422;15.018;2024-02-04T12:57:21;0.55;;;0.47;;
23668;SDS011;12011;47.422;15.018;2024-02-04T12:59:51;0.66;;;0.56;;
23668;SDS011;12011;47.422;15.018;2024-02-04T13:02:21;0.58;;;0.49;;
23668;SDS011;12011;47.422;15.018;2024-02-04T13:04:50;0.83;;;0.70;;
23668;SDS011;12011;47.422;15.018;2024-02-04T13:07:20;0.44;;;0.37;;
23668;SDS011;12011;47.422;15.018;2024-02-04T13:09:57;0.64;;;0.53;;
23668;SDS011;12011;47.422;15.018;2024-02-04T13:12:30;0.65;;;0.54;;
23668;SDS011;12011;47.422;15.018;2024-02-04T13:15:01;0.61;;;0.51;;
23668;SDS011;12011;47.422;15.018;2024-02-04T13:17:30;0.61;;;0.51;;
23668;SDS011;12011;47.422;15.018;2024-02-04T13:20:00;0.57;;;0.47;;
23668;SDS011;12011;47.422;15.018;2024-02-04T13:22:30;0.59;;;0.48;;
23668;SDS011;12011;47.422;15.018;2024-02-04T13:25:00;0.76;;;0.62;;
23668;SDS011;12011;47.422;15.018;2024-02-04T13:27:32;0.59;;;0.47;;
23668;SDS011;12011;47.422;15.018;2024-02-04T13:30:01;0.63;;;0.50;;
23668;SDS011;12011;47.422;15.018;2024-02-04T13:32:38;0.45;;;0.36;;
23668;SDS011;12011;47.422;15.018;2024-02-04T13:35:09;0.57;;;0.45;;
23668;SDS011;12011;47.422;15.018;2024-02-04T13:37:43;0.57;;;0.44;;
23668;SDS011;12011;47.422;15.018;2024-02-04T13:40:17;0.86;;;0.67;;
23668;SDS011;12011;47.422;15.018;2024-02-04T13:42:51;0.71;;;0.56;;
23668;SDS011;12011;47.422;15.018;2024-02-04T13:45:20;0.59;;;0.48;;
23668;SDS011;12011;47.422;15.018;2024-02-04T13:47:50;0.58;;;0.46;;
23668;SDS011;12011;47.422;15.018;2024-02-04T13:50:20;0.68;;;0.53;;
23668;SDS011;12011;47.422;15.018;2024-02-04T13:52:49;0.65;;;0.51;;
23668;SDS011;12011;47.422;15.018;2024-02-04T13:55:19;0.83;;;0.65;;
23668;SDS011;12011;47.422;15.018;2024-02-04T13:57:51;0.62;;;0.48;;
23668;SDS011;12011;47.422;15.018;2024-02-04T14:00:20;0.71;;;0.56;;
23668;SDS011;12011;47.422;15.018;2024-02-04T14:02:49;0.64;;;0.50;;
23668;SDS011;12011;47.422;15.018;2024-02-04T14:05:19;0.77;;;0.59;;
23668;SDS011;12011;47.422;15.018;2024-02-04T14:07:50;0.65;;;0.50;;
23668;SDS011;12011;47.422;15.018;2024-02-04T14:10:20;0.97;;;0.74;;
23668;SDS011;12011;47.422;15.018;2024-02-04T14:12:52;0.87;;;0.67;;
23668;SDS011;12011;47.422;15.018;2024-02-04T14:15:21;0.87;;;0.67;;
23668;SDS011;12011;47.422;15.018;2024-02-04T14:17:51;0.88;;;0.69;;
23668;SDS011;12011;47.422;15.018;2024-02-04T14:20:20;0.68;;;0.53;;
23668;SDS011;12011;47.422;15.018;2024-02-04T14:22:50;0.83;;;0.65;;
23668;SDS011;12011;47.422;15.018;2024-02-04T14:25:20;0.54;;;0.43;;
23668;SDS011;12011;47.422;15.018;2024-02-04T14:27:52;0.51;;;0.40;;
23668;SDS011;12011;47.422;15.018;2024-02-04T14:30:21;0.79;;;0.61;;
23668;SDS011;12011;47.422;15.018;2024-02-04T14:32:51;0.82;;;0.64;;
23668;SDS011;12011;47.422;15.018;2024-02-04T14:35:20;0.89;;;0.70;;
23668;SDS011;12011;47.422;15.018;2024-02-04T14:37:52;0.87;;;0.68;;
23668;SDS011;12011;47.422;15.018;2024-02-04T14:40:21;0.93;;;0.74;;
23668;SDS011;12011;47.422;15.018;2024-02-04T14:42:53;0.85;;;0.67;;
23668;SDS011;12011;47.422;15.018;2024-02-04T14:45:22;0.72;;;0.55;;
23668;SDS011;12011;47.422;15.018;2024-02-04T14:47:52;0.78;;;0.61;;
23668;SDS011;12011;47.422;15.018;2024-02-04T14:50:21;1.28;;;0.97;;
23668;SDS011;12011;47.422;15.018;2024-02-04T14:52:51;1.11;;;0.83;;
23668;SDS011;12011;47.422;15.018;2024-02-04T14:55:20;1.00;;;0.74;;
23668;SDS011;12011;47.422;15.018;2024-02-04T14:57:49;0.83;;;0.61;;
23668;SDS011;12011;47.422;15.018;2024-02-04T15:00:22;1.12;;;0.82;;
23668;SDS011;12011;47.422;15.018;2024-02-04T15:02:53;0.95;;;0.70;;
23668;SDS011;12011;47.422;15.018;2024-02-04T15:05:23;0.79;;;0.58;;
23668;SDS011;12011;47.422;15.018;2024-02-04T15:07:52;0.88;;;0.65;;
23668;SDS011;12011;47.422;15.018;2024-02-04T15:10:22;0.64;;;0.48;;
23668;SDS011;12011;47.422;15.018;2024-02-04T15:12:54;0.86;;;0.65;;
23668;SDS011;12011;47.422;15.018;2024-02-04T15:15:25;0.88;;;0.67;;
23668;SDS011;12011;47.422;15.018;2024-02-04T15:17:55;1.21;;;0.93;;